createdAt,value
2023-10-13T00:02:07.417Z,100522.34
2023-10-13T00:02:42.699Z,100521.38
2023-10-13T00:03:16.505Z,100527.84
2023-10-13T00:03:52.472Z,100525.00
2023-10-13T00:04:38.575Z,100534.91
2023-10-13T00:05:12.198Z,100526.16
2023-10-13T00:05:48.791Z,100529.78
2023-10-13T00:06:22.395Z,100522.53
2023-10-13T00:07:00.892Z,100525.38
2023-10-13T00:07:34.471Z,100535.28
2023-10-13T00:08:10.790Z,100531.66
2023-10-13T00:08:44.409Z,100532.72
2023-10-13T00:09:17.965Z,100529.38
2023-10-13T00:09:51.460Z,100540.78
2023-10-13T00:10:25.584Z,100538.13
2023-10-13T00:11:01.326Z,100535.47
2023-10-13T00:11:35.771Z,100537.38
2023-10-13T00:12:24.528Z,100533.00
2023-10-13T00:13:27.926Z,100531.38
2023-10-13T00:14:04.303Z,100535.84
2023-10-13T00:14:42.866Z,100538.59
2023-10-13T00:15:18.702Z,100533.34
2023-10-13T00:15:59.236Z,100541.28
2023-10-13T00:16:35.921Z,100544.00
2023-10-13T00:17:11.585Z,100544.13
2023-10-13T00:17:45.337Z,100539.63
2023-10-13T00:18:20.382Z,100547.53
2023-10-13T08:45:53.824Z,100687.34
2023-10-13T08:46:30.733Z,100682.94
2023-10-13T08:47:07.022Z,100689.69
2023-10-13T08:47:42.493Z,100690.00
2023-10-13T08:48:16.478Z,100694.81
2023-10-13T08:48:50.064Z,100697.16
2023-10-13T08:49:24.988Z,100697.56
2023-10-13T08:50:11.970Z,100699.03
2023-10-13T08:50:53.479Z,100695.84
2023-10-13T08:51:44.468Z,100697.75
2023-10-13T08:52:39.255Z,100704.91
2023-10-13T08:53:28.097Z,100703.50
2023-10-13T08:54:09.580Z,100704.38
2023-10-13T08:55:04.946Z,100701.56
2023-10-13T08:55:49.893Z,100705.25
2023-10-13T08:56:36.374Z,100705.44
2023-10-13T08:57:42.286Z,100714.00
2023-10-13T08:58:15.808Z,100700.53
2023-10-13T08:58:54.560Z,100699.84
2023-10-13T08:59:40.174Z,100699.63
2023-10-13T09:00:33.054Z,100708.38
2023-10-13T09:01:35.562Z,100705.22
2023-10-13T09:02:19.017Z,100699.84
2023-10-13T09:03:21.388Z,100697.91
2023-10-13T09:04:19.038Z,100701.00
2023-10-13T09:05:01.023Z,100698.00
2023-10-13T09:05:43.170Z,100703.56
2023-10-13T09:06:23.918Z,100699.06
2023-10-13T09:07:08.650Z,100700.44
2023-10-13T09:08:02.566Z,100700.88
2023-10-13T09:08:45.363Z,100702.56
2023-10-13T09:09:41.058Z,100699.53
2023-10-13T09:10:45.527Z,100697.63
2023-10-13T09:11:27.580Z,100693.75
2023-10-13T09:12:11.151Z,100697.94
2023-10-13T09:13:05.046Z,100694.28
2023-10-13T09:13:46.181Z,100697.22
2023-10-13T09:14:35.234Z,100697.59
2023-10-13T09:15:14.603Z,100694.69
2023-10-13T09:16:05.742Z,100700.41
2023-10-13T09:16:42.071Z,100693.97
2023-10-13T09:17:21.664Z,100691.03
2023-10-13T09:17:55.594Z,100700.44
2023-10-13T09:18:48.134Z,100691.50
2023-10-13T09:19:22.423Z,100689.94
2023-10-13T09:19:58.566Z,100686.03
2023-10-13T09:20:42.398Z,100690.31
2023-10-13T09:21:56.010Z,100679.91
2023-10-13T09:22:37.480Z,100689.50
2023-10-13T09:23:28.733Z,100677.75
2023-10-13T09:24:23.398Z,100681.66
2023-10-13T09:25:01.518Z,100687.00
2023-10-13T09:25:59.371Z,100685.41
2023-10-13T09:26:37.335Z,100683.56
2023-10-13T09:27:14.479Z,100690.09
2023-10-13T09:27:54.546Z,100683.13
2023-10-13T09:28:32.618Z,100687.50
2023-10-13T09:29:19.622Z,100689.88
2023-10-13T09:29:58.763Z,100686.19
2023-10-13T09:30:32.676Z,100689.34
2023-10-13T09:31:13.531Z,100683.91
2023-10-13T09:32:03.265Z,100685.19
2023-10-13T09:32:47.207Z,100684.28
2023-10-13T09:33:37.274Z,100682.94
2023-10-13T09:34:10.972Z,100681.41
2023-10-13T09:34:45.776Z,100693.03
2023-10-13T09:35:24.337Z,100692.75
2023-10-13T09:36:00.958Z,100697.47
2023-10-13T09:36:37.057Z,100692.47
2023-10-13T09:37:12.956Z,100694.19
2023-10-13T09:37:49.980Z,100692.34
2023-10-13T09:38:27.447Z,100687.09
2023-10-13T09:39:21.725Z,100684.97
2023-10-13T09:40:05.991Z,100688.22
2023-10-13T09:40:40.202Z,100694.19
2023-10-13T09:41:20.210Z,100687.38
2023-10-13T09:41:56.305Z,100692.78
2023-10-13T09:42:29.749Z,100697.34
2023-10-13T09:43:08.771Z,100696.19
2023-10-13T09:43:44.958Z,100695.06
2023-10-13T09:44:19.169Z,100697.59
2023-10-13T09:44:53.321Z,100698.59
2023-10-13T09:45:37.295Z,100690.75
2023-10-13T09:46:19.266Z,100686.22
2023-10-13T09:46:54.192Z,100683.25
2023-10-13T09:47:38.602Z,100684.25
2023-10-13T09:48:22.950Z,100681.97
2023-10-13T09:49:09.625Z,100677.72
2023-10-13T09:49:46.681Z,100681.69
2023-10-13T09:50:27.446Z,100679.56
2023-10-13T09:51:09.889Z,100679.13
2023-10-13T09:51:48.231Z,100682.84
2023-10-13T09:52:21.695Z,100681.66
2023-10-13T09:52:57.827Z,100685.06
2023-10-13T09:53:35.278Z,100683.53
2023-10-13T09:54:41.674Z,100687.94
2023-10-13T09:55:36.171Z,100682.25
2023-10-13T09:56:33.575Z,100681.38
2023-10-13T09:57:19.828Z,100688.06
2023-10-13T09:58:12.043Z,100681.13
2023-10-13T09:58:58.474Z,100679.25
2023-10-13T09:59:50.530Z,100683.53
2023-10-13T10:00:48.222Z,100677.94
2023-10-13T10:01:35.103Z,100672.47
2023-10-13T10:02:11.559Z,100675.06
2023-10-13T10:02:45.732Z,100675.91
2023-10-13T10:03:32.145Z,100675.19
2023-10-13T10:04:19.226Z,100668.59
2023-10-13T10:05:13.871Z,100678.41
2023-10-13T10:06:18.594Z,100673.28
2023-10-13T10:07:00.747Z,100673.63
2023-10-13T10:07:34.500Z,100668.63
2023-10-13T10:08:11.216Z,100670.78
2023-10-13T10:08:52.381Z,100671.63
2023-10-13T10:09:38.875Z,100673.34
2023-10-13T10:10:23.439Z,100671.63
2023-10-13T10:11:20.016Z,100667.22
2023-10-13T10:12:19.802Z,100679.88
2023-10-13T10:13:17.823Z,100668.31
2023-10-13T10:14:10.138Z,100665.59
2023-10-13T10:15:07.420Z,100663.66
2023-10-13T10:15:48.566Z,100668.97
2023-10-13T10:17:04.170Z,100664.53
2023-10-13T10:17:48.860Z,100663.75
2023-10-13T10:18:26.880Z,100665.22
2023-10-13T10:19:03.584Z,100661.19
2023-10-13T10:19:58.417Z,100670.16
2023-10-13T10:20:43.990Z,100660.19
2023-10-13T10:21:21.710Z,100661.59
2023-10-13T10:22:17.916Z,100664.63
2023-10-13T10:23:01.840Z,100655.34
2023-10-13T10:23:41.389Z,100652.13
2023-10-13T10:24:31.115Z,100650.56
2023-10-13T10:25:08.241Z,100645.09
2023-10-13T10:25:45.849Z,100650.13
2023-10-13T10:26:22.397Z,100650.03
2023-10-13T10:26:55.946Z,100643.34
2023-10-13T10:27:32.066Z,100644.00
2023-10-13T10:28:09.081Z,100647.13
2023-10-13T10:28:44.910Z,100645.19
2023-10-13T10:29:19.120Z,100634.69
2023-10-13T10:29:57.694Z,100643.34
2023-10-13T10:30:35.013Z,100638.97
2023-10-13T10:31:30.495Z,100643.72
2023-10-13T10:32:15.124Z,100631.88
2023-10-13T10:33:02.757Z,100641.75
2023-10-13T10:33:36.075Z,100641.19
2023-10-13T10:34:17.204Z,100633.34
2023-10-13T10:34:51.363Z,100638.91
2023-10-13T10:35:25.263Z,100634.53
2023-10-13T10:36:03.035Z,100637.28
2023-10-13T10:36:37.846Z,100624.22
2023-10-13T10:37:12.925Z,100633.41
2023-10-13T10:37:49.888Z,100635.50
2023-10-13T10:38:29.603Z,100632.13
2023-10-13T10:39:07.494Z,100633.81
2023-10-13T10:39:47.533Z,100630.47
2023-10-13T10:40:39.718Z,100630.66
2023-10-13T10:41:14.811Z,100622.59
2023-10-13T10:41:53.375Z,100633.03
2023-10-13T10:42:30.435Z,100632.78
2023-10-13T10:43:25.483Z,100627.03
2023-10-13T10:44:09.949Z,100616.91
2023-10-13T10:44:45.188Z,100622.56
2023-10-13T10:45:23.563Z,100626.75
2023-10-13T10:46:00.949Z,100623.63
2023-10-13T10:46:43.392Z,100622.09
2023-10-13T10:47:21.276Z,100615.06
2023-10-13T10:47:59.510Z,100617.97
2023-10-13T10:48:35.412Z,100621.44
2023-10-13T10:49:09.876Z,100622.19
2023-10-13T10:49:43.470Z,100617.19
2023-10-13T10:50:36.055Z,100613.53
2023-10-13T10:51:25.474Z,100611.28
2023-10-13T10:52:08.942Z,100612.31
2023-10-13T10:52:42.389Z,100610.06
2023-10-13T10:53:15.965Z,100614.00
2023-10-13T10:53:58.406Z,100610.06
2023-10-13T10:54:35.503Z,100605.78
2023-10-13T10:55:10.508Z,100614.00
2023-10-13T10:55:44.146Z,100604.78
2023-10-13T10:56:35.655Z,100614.19
2023-10-13T10:57:18.959Z,100611.59
2023-10-13T10:58:02.735Z,100610.56
2023-10-13T10:58:45.223Z,100600.53
2023-10-13T10:59:23.810Z,100602.16
2023-10-13T11:00:12.455Z,100604.59
2023-10-13T11:00:51.655Z,100607.06
2023-10-13T11:01:35.115Z,100610.81
2023-10-13T11:02:10.167Z,100610.63
2023-10-13T11:02:43.552Z,100609.28
2023-10-13T11:03:17.371Z,100617.50
2023-10-13T11:04:17.413Z,100603.63
2023-10-13T11:04:55.107Z,100606.03
2023-10-13T11:05:33.924Z,100614.13
2023-10-13T11:06:16.256Z,100612.72
2023-10-13T11:06:57.520Z,100609.44
2023-10-13T11:07:32.770Z,100604.00
2023-10-13T11:08:13.503Z,100601.69
2023-10-13T11:08:53.345Z,100600.22
2023-10-13T11:09:38.576Z,100601.00
2023-10-13T11:10:21.137Z,100606.69
2023-10-13T11:10:54.433Z,100604.31
2023-10-13T11:11:36.996Z,100602.53
2023-10-13T11:12:24.590Z,100596.00
2023-10-13T11:13:19.869Z,100593.47
2023-10-13T11:14:11.896Z,100599.00
2023-10-13T11:14:51.811Z,100600.81
2023-10-13T11:15:35.099Z,100604.56
2023-10-13T11:16:09.644Z,100598.09
2023-10-13T11:16:52.031Z,100599.06
2023-10-13T11:17:27.983Z,100597.78
2023-10-13T11:18:02.096Z,100596.13
2023-10-13T11:18:39.791Z,100588.75
2023-10-13T11:19:13.154Z,100583.78
2023-10-13T11:19:46.814Z,100586.91
2023-10-13T11:20:35.330Z,100587.19
2023-10-13T11:21:08.879Z,100593.31
2023-10-13T11:21:45.960Z,100591.31
2023-10-13T11:22:37.114Z,100592.72
2023-10-13T11:23:15.095Z,100593.81
2023-10-13T11:24:09.918Z,100594.84
2023-10-13T11:24:44.053Z,100592.28
2023-10-13T11:25:31.596Z,100588.56
2023-10-13T11:26:06.963Z,100593.13
2023-10-13T11:26:53.729Z,100595.69
2023-10-13T11:27:56.504Z,100593.13
2023-10-13T11:28:29.939Z,100592.03
2023-10-13T11:29:11.553Z,100585.44
2023-10-13T11:29:53.313Z,100587.94
2023-10-13T11:30:32.194Z,100593.09
2023-10-13T11:31:20.365Z,100586.38
2023-10-13T11:32:00.398Z,100584.91
2023-10-13T11:32:34.618Z,100584.44
2023-10-13T11:33:19.450Z,100584.53
2023-10-13T11:33:57.626Z,100582.34
2023-10-13T11:34:41.189Z,100591.69
2023-10-13T11:35:21.739Z,100587.66
2023-10-13T11:35:55.776Z,100597.84
2023-10-13T11:36:36.517Z,100594.53
2023-10-13T11:37:29.609Z,100592.22
2023-10-13T11:38:14.815Z,100590.13
2023-10-13T11:38:48.112Z,100585.31
2023-10-13T11:39:34.431Z,100581.28
2023-10-13T11:40:15.660Z,100586.41
2023-10-13T11:41:06.539Z,100583.16
2023-10-13T11:41:54.953Z,100578.31
2023-10-13T11:42:28.655Z,100583.34
2023-10-13T11:43:02.022Z,100577.88
2023-10-13T11:43:41.969Z,100587.41
2023-10-13T11:44:18.693Z,100577.13
2023-10-13T11:45:12.667Z,100582.91
2023-10-13T11:46:01.829Z,100582.13
2023-10-13T11:46:38.762Z,100580.28
2023-10-13T11:47:38.308Z,100588.78
2023-10-13T11:48:15.830Z,100585.00
2023-10-13T11:48:55.625Z,100581.84
2023-10-13T11:49:32.075Z,100582.03
2023-10-13T11:50:07.323Z,100581.97
2023-10-13T11:50:43.167Z,100575.63
2023-10-13T11:51:25.722Z,100580.22
2023-10-13T11:52:17.813Z,100585.75
2023-10-13T11:52:51.521Z,100574.78
2023-10-13T11:53:28.798Z,100569.25
2023-10-13T11:54:02.343Z,100582.69
2023-10-13T11:54:37.428Z,100572.16
2023-10-13T11:55:10.980Z,100579.16
2023-10-13T11:55:44.367Z,100576.59
2023-10-13T11:56:18.701Z,100576.06
2023-10-13T11:56:52.204Z,100578.06
2023-10-13T11:57:25.755Z,100570.00
2023-10-13T11:58:00.681Z,100576.81
2023-10-13T11:58:36.479Z,100585.97
2023-10-13T11:59:17.620Z,100582.97
2023-10-13T12:00:19.855Z,100583.66
2023-10-13T12:00:55.726Z,100579.63
2023-10-13T12:01:50.872Z,100575.25
2023-10-13T12:02:27.306Z,100574.13
2023-10-13T12:03:19.490Z,100567.78
2023-10-13T12:04:11.738Z,100569.84
2023-10-13T12:04:52.927Z,100575.66
2023-10-13T12:05:38.678Z,100570.97
2023-10-13T12:06:36.677Z,100567.84
2023-10-13T12:07:16.212Z,100568.63
2023-10-13T12:07:53.229Z,100564.59
2023-10-13T12:08:34.223Z,100560.25
2023-10-13T12:09:19.685Z,100558.53
2023-10-13T12:09:56.444Z,100562.56
2023-10-13T12:10:40.307Z,100564.31
2023-10-13T12:11:31.684Z,100565.78
2023-10-13T12:12:07.602Z,100560.25
2023-10-13T12:12:48.846Z,100559.25
2023-10-13T12:13:22.443Z,100558.53
2023-10-13T12:13:56.447Z,100561.13
2023-10-13T12:14:31.145Z,100556.91
2023-10-13T12:15:10.904Z,100560.66
2023-10-13T12:15:52.704Z,100560.66
2023-10-13T12:16:35.742Z,100558.44
2023-10-13T12:17:11.983Z,100563.38
2023-10-13T12:17:46.654Z,100563.38
2023-10-13T12:18:20.844Z,100563.06
2023-10-13T12:18:56.991Z,100562.38
2023-10-13T12:19:30.762Z,100560.16
2023-10-13T12:20:10.445Z,100556.47
2023-10-13T12:20:47.043Z,100554.19
2023-10-13T12:21:22.900Z,100555.47
2023-10-13T12:21:58.762Z,100551.13
2023-10-13T12:22:52.590Z,100554.94
2023-10-13T12:23:32.731Z,100548.53
2023-10-13T12:24:13.143Z,100556.53
2023-10-13T12:24:54.510Z,100553.13
2023-10-13T12:25:33.948Z,100551.72
2023-10-13T12:26:20.247Z,100554.13
2023-10-13T12:26:57.048Z,100553.66
2023-10-13T12:27:46.711Z,100551.00
2023-10-13T12:28:22.808Z,100547.59
2023-10-13T12:29:07.457Z,100546.34
2023-10-13T12:29:47.355Z,100556.72
2023-10-13T12:30:36.604Z,100547.88
2023-10-13T12:31:13.499Z,100549.00
2023-10-13T12:31:53.654Z,100543.16
2023-10-13T12:32:32.101Z,100558.50
2023-10-13T12:33:10.554Z,100547.59
2023-10-13T12:33:43.994Z,100552.38
2023-10-13T12:34:30.601Z,100552.91
2023-10-13T12:35:04.185Z,100551.44
2023-10-13T12:36:10.783Z,100554.84
2023-10-13T12:36:54.555Z,100551.19
2023-10-13T12:37:50.739Z,100551.84
2023-10-13T12:38:42.678Z,100550.00
2023-10-13T12:39:37.440Z,100543.03
2023-10-13T12:40:34.286Z,100545.41
2023-10-13T12:41:35.121Z,100537.63
2023-10-13T12:42:27.711Z,100544.50
2023-10-13T12:43:20.079Z,100536.63
2023-10-13T12:44:12.162Z,100539.84
2023-10-13T12:45:06.420Z,100540.72
2023-10-13T12:46:09.323Z,100535.16
2023-10-13T12:47:02.340Z,100534.50
2023-10-13T12:47:54.612Z,100535.88
2023-10-13T12:48:48.131Z,100536.66
2023-10-13T12:49:43.492Z,100533.66
2023-10-13T12:50:35.740Z,100533.72
2023-10-13T12:51:22.309Z,100528.13
2023-10-13T12:51:55.568Z,100532.00
2023-10-13T12:52:34.988Z,100523.78
2023-10-13T12:53:15.125Z,100514.91
2023-10-13T12:53:49.832Z,100521.34
2023-10-13T12:54:25.317Z,100516.53
2023-10-13T12:54:59.046Z,100523.44
2023-10-13T12:55:33.872Z,100515.78
2023-10-13T12:56:08.031Z,100525.88
2023-10-13T12:56:44.065Z,100520.22
2023-10-13T12:57:17.686Z,100526.66
2023-10-13T12:57:50.921Z,100528.50
2023-10-13T12:58:28.371Z,100516.84
2023-10-13T12:59:01.732Z,100519.31
2023-10-13T12:59:35.581Z,100513.59
2023-10-13T13:00:18.264Z,100518.66
2023-10-13T13:00:56.891Z,100512.59
2023-10-13T13:01:34.435Z,100511.72
2023-10-13T13:02:09.561Z,100514.06
2023-10-13T13:02:43.518Z,100507.41
2023-10-13T13:03:17.302Z,100512.97
2023-10-13T13:03:52.291Z,100512.19
2023-10-13T13:04:29.215Z,100504.09
2023-10-13T13:05:07.806Z,100508.41
2023-10-13T13:05:48.367Z,100515.31
2023-10-13T13:06:26.681Z,100508.91
2023-10-13T13:07:00.285Z,100503.34
2023-10-13T13:07:44.565Z,100508.97
2023-10-13T13:08:23.850Z,100501.63
2023-10-13T13:09:01.421Z,100498.03
2023-10-13T13:09:38.607Z,100499.03
2023-10-13T13:10:15.337Z,100505.06
2023-10-13T13:10:49.373Z,100506.63
2023-10-13T13:11:24.152Z,100498.94
2023-10-13T13:11:59.909Z,100495.91
2023-10-13T13:12:36.294Z,100495.25
2023-10-13T13:13:10.344Z,100504.56
2023-10-13T13:13:43.744Z,100498.91
2023-10-13T13:14:17.233Z,100501.75
2023-10-13T13:14:55.345Z,100500.91
2023-10-13T13:15:28.637Z,100498.66
2023-10-13T13:16:01.898Z,100493.78
2023-10-13T13:16:36.401Z,100494.16
2023-10-13T13:17:10.043Z,100505.22
2023-10-13T13:17:43.771Z,100494.31
2023-10-13T13:18:17.284Z,100503.06
2023-10-13T13:18:51.280Z,100491.13
2023-10-13T13:19:27.233Z,100496.28
2023-10-13T13:20:01.004Z,100502.19
2023-10-13T13:20:34.590Z,100501.44
2023-10-13T13:21:13.162Z,100495.50
2023-10-13T13:21:46.938Z,100490.56
2023-10-13T13:22:21.867Z,100496.44
2023-10-13T13:22:56.947Z,100492.41
2023-10-13T13:23:59.632Z,100496.84
2023-10-13T13:24:33.450Z,100493.72
2023-10-13T13:25:10.469Z,100490.22
2023-10-13T13:25:45.891Z,100497.75
2023-10-13T13:26:19.762Z,100497.03
2023-10-13T13:26:56.016Z,100493.78
2023-10-13T13:27:32.796Z,100496.59
2023-10-13T13:28:07.296Z,100492.31
2023-10-13T13:28:40.951Z,100492.13
2023-10-13T13:29:14.517Z,100495.38
2023-10-13T13:29:48.084Z,100494.63
2023-10-13T13:30:23.081Z,100490.81
2023-10-13T13:30:57.226Z,100498.28
2023-10-13T13:31:30.857Z,100491.84
2023-10-13T13:32:08.824Z,100489.34
2023-10-13T13:32:42.315Z,100494.19
2023-10-13T13:33:17.297Z,100487.94
2023-10-13T13:33:51.102Z,100494.34
2023-10-13T13:34:24.650Z,100487.81
2023-10-13T13:35:14.805Z,100484.09
2023-10-13T13:35:50.137Z,100488.53
2023-10-13T13:36:23.851Z,100491.25
2023-10-13T13:37:01.925Z,100488.44
2023-10-13T13:37:38.884Z,100483.78
2023-10-13T13:38:23.135Z,100487.88
2023-10-13T13:39:03.156Z,100484.25
2023-10-13T13:39:44.296Z,100484.56
2023-10-13T13:40:19.458Z,100480.69
2023-10-13T13:40:55.468Z,100481.88
2023-10-13T13:41:29.303Z,100482.22
2023-10-13T13:42:05.630Z,100479.34
2023-10-13T13:42:42.037Z,100481.56
2023-10-13T13:43:36.975Z,100475.22
2023-10-13T13:44:16.844Z,100478.16
2023-10-13T13:44:50.947Z,100481.06
2023-10-13T13:45:30.349Z,100486.44
2023-10-13T13:46:04.746Z,100473.91
2023-10-13T13:46:44.333Z,100477.09
2023-10-13T13:47:18.474Z,100474.66
2023-10-13T13:47:55.134Z,100473.03
2023-10-13T13:48:29.807Z,100485.16
2023-10-13T13:49:03.801Z,100477.94
2023-10-13T13:49:41.046Z,100478.88
2023-10-13T13:50:21.071Z,100475.56
2023-10-13T13:51:05.006Z,100486.84
2023-10-13T13:51:39.261Z,100481.34
2023-10-13T13:52:18.928Z,100482.41
2023-10-13T13:52:58.845Z,100470.13
2023-10-13T13:53:39.286Z,100471.97
2023-10-13T13:54:12.979Z,100467.56
2023-10-13T13:54:46.543Z,100466.03
2023-10-13T13:55:21.502Z,100482.84
2023-10-13T13:55:54.939Z,100473.81
2023-10-13T13:56:32.304Z,100481.38
2023-10-13T13:57:07.253Z,100469.03
2023-10-13T13:57:40.679Z,100477.47
2023-10-13T13:58:14.375Z,100476.94
2023-10-13T13:58:51.429Z,100473.31
2023-10-13T13:59:24.874Z,100470.84
2023-10-13T13:59:59.017Z,100472.72
2023-10-13T14:00:38.883Z,100478.44
2023-10-13T14:01:30.701Z,100476.94
2023-10-13T14:02:21.183Z,100472.94
2023-10-13T14:02:56.747Z,100475.00
2023-10-13T14:03:33.653Z,100465.91
2023-10-13T14:04:08.910Z,100473.31
2023-10-13T14:04:47.792Z,100464.03
2023-10-13T14:05:21.434Z,100470.31
2023-10-13T14:05:55.385Z,100473.84
2023-10-13T14:06:28.967Z,100466.13
2023-10-13T14:07:07.648Z,100470.84
2023-10-13T14:07:42.589Z,100475.91
2023-10-13T14:08:17.674Z,100467.56
2023-10-13T14:08:52.450Z,100474.06
2023-10-13T14:09:37.599Z,100474.72
2023-10-13T14:10:18.034Z,100468.72
2023-10-13T14:11:09.976Z,100461.81
2023-10-13T14:12:02.644Z,100472.72
2023-10-13T14:12:43.541Z,100463.91
2023-10-13T14:13:17.433Z,100467.75
2023-10-13T14:13:57.296Z,100461.06
2023-10-13T14:14:34.912Z,100463.69
2023-10-13T14:15:21.468Z,100472.03
2023-10-13T14:15:57.617Z,100455.75
2023-10-13T14:16:34.613Z,100467.13
2023-10-13T14:17:09.479Z,100458.59
2023-10-13T14:17:44.056Z,100462.16
2023-10-13T14:18:18.370Z,100461.59
2023-10-13T14:18:53.188Z,100449.94
2023-10-13T14:19:29.520Z,100460.81
2023-10-13T14:20:17.180Z,100462.53
2023-10-13T14:20:50.641Z,100451.19
2023-10-13T14:21:25.684Z,100448.53
2023-10-13T14:22:07.957Z,100450.63
2023-10-13T14:22:42.841Z,100451.94
2023-10-13T14:23:17.106Z,100450.22
2023-10-13T14:23:54.864Z,100448.94
2023-10-13T14:24:44.977Z,100454.06
2023-10-13T14:25:19.375Z,100448.81
2023-10-13T14:25:53.180Z,100454.03
2023-10-13T14:26:27.019Z,100457.13
2023-10-13T14:27:10.591Z,100450.16
2023-10-13T14:27:44.602Z,100448.41
2023-10-13T14:28:19.325Z,100442.66
2023-10-13T14:29:01.870Z,100447.16
2023-10-13T14:29:41.670Z,100449.44
2023-10-13T14:30:20.979Z,100445.16
2023-10-13T14:30:55.037Z,100444.38
2023-10-13T14:31:32.799Z,100442.66
2023-10-13T14:32:06.637Z,100438.53
2023-10-13T14:32:44.168Z,100442.41
2023-10-13T14:33:17.714Z,100437.06
2023-10-13T14:33:51.259Z,100445.03
2023-10-13T14:34:27.507Z,100439.81
2023-10-13T14:35:01.758Z,100432.97
2023-10-13T14:35:37.961Z,100437.47
2023-10-13T14:36:11.952Z,100429.03
2023-10-13T14:36:49.488Z,100434.09
2023-10-13T14:37:33.013Z,100439.88
2023-10-13T14:38:07.211Z,100444.38
2023-10-13T14:38:45.640Z,100443.56
2023-10-13T14:39:22.117Z,100434.72
2023-10-13T14:39:58.323Z,100434.13
2023-10-13T14:40:32.186Z,100444.22
2023-10-13T14:41:06.946Z,100434.66
2023-10-13T14:41:41.780Z,100437.56
2023-10-13T14:42:18.148Z,100439.63
2023-10-13T14:42:56.960Z,100431.13
2023-10-13T14:43:30.752Z,100430.78
2023-10-13T14:44:06.767Z,100435.38
2023-10-13T14:44:41.303Z,100437.56
2023-10-13T14:45:14.870Z,100431.09
2023-10-13T14:45:48.677Z,100432.81
2023-10-13T14:46:24.355Z,100427.75
2023-10-13T14:46:58.150Z,100427.03
2023-10-13T14:47:31.596Z,100429.94
2023-10-13T14:48:06.767Z,100424.72
2023-10-13T14:48:40.145Z,100426.03
2023-10-13T14:49:15.396Z,100425.50
2023-10-13T14:49:48.761Z,100430.78
2023-10-13T14:50:22.255Z,100426.53
2023-10-13T14:50:55.766Z,100428.47
2023-10-13T14:51:30.050Z,100426.78
2023-10-13T14:52:03.572Z,100430.47
2023-10-13T14:52:37.262Z,100433.66
2023-10-13T14:53:10.657Z,100430.78
2023-10-13T14:53:48.467Z,100426.00
2023-10-13T14:54:33.876Z,100428.91
2023-10-13T14:55:22.637Z,100429.56
2023-10-13T14:55:56.525Z,100428.72
2023-10-13T14:56:30.256Z,100432.81
2023-10-13T14:57:05.057Z,100434.88
2023-10-13T14:57:38.929Z,100430.63
2023-10-13T14:58:17.278Z,100424.78
2023-10-13T14:58:51.686Z,100432.94
2023-10-13T14:59:25.378Z,100425.09
2023-10-13T14:59:59.119Z,100430.00
2023-10-13T15:00:35.865Z,100425.09
2023-10-13T15:01:16.904Z,100428.47
2023-10-13T15:01:50.871Z,100426.81
2023-10-13T15:02:24.747Z,100424.47
2023-10-13T15:03:02.389Z,100432.09
2023-10-13T15:03:39.298Z,100422.75
2023-10-13T15:04:12.642Z,100426.50
2023-10-13T15:04:49.626Z,100425.84
2023-10-13T15:05:23.382Z,100426.19
2023-10-13T15:05:57.051Z,100428.91
2023-10-13T15:06:30.423Z,100434.00
2023-10-13T15:07:04.250Z,100426.91
2023-10-13T15:07:37.774Z,100425.22
2023-10-13T15:08:11.521Z,100425.56
2023-10-13T15:08:49.635Z,100427.25
2023-10-13T15:09:24.860Z,100418.44
2023-10-13T15:10:00.232Z,100422.19
2023-10-13T15:10:34.148Z,100435.59
2023-10-13T15:11:14.145Z,100423.56
2023-10-13T15:11:54.525Z,100430.38
2023-10-13T15:12:29.662Z,100421.53
2023-10-13T15:13:06.411Z,100428.03
2023-10-13T15:13:45.950Z,100426.34
2023-10-13T15:14:21.597Z,100427.38
2023-10-13T15:14:57.720Z,100424.66
2023-10-13T15:15:33.363Z,100423.31
2023-10-13T15:16:24.719Z,100426.72
2023-10-13T15:17:01.783Z,100421.97
2023-10-13T15:17:39.812Z,100419.09
2023-10-13T15:18:18.092Z,100424.03
2023-10-13T15:18:53.825Z,100422.66
2023-10-13T15:19:27.144Z,100423.38
2023-10-13T15:20:01.096Z,100423.50
2023-10-13T15:20:44.858Z,100424.72
2023-10-13T15:21:31.683Z,100431.34
2023-10-13T15:22:08.526Z,100431.69
2023-10-13T15:22:49.194Z,100426.09
2023-10-13T15:23:24.954Z,100423.06
2023-10-13T15:24:04.860Z,100424.75
2023-10-13T15:24:46.380Z,100433.06
2023-10-13T15:25:29.610Z,100423.06
2023-10-13T15:26:10.747Z,100423.75
2023-10-13T15:26:53.607Z,100428.16
2023-10-13T15:27:30.024Z,100422.22
2023-10-13T15:28:04.008Z,100424.09
2023-10-13T15:28:38.898Z,100425.09
2023-10-13T15:29:19.678Z,100425.44
2023-10-13T15:29:53.320Z,100423.75
2023-10-13T15:30:43.670Z,100420.69
2023-10-13T15:31:35.994Z,100419.69
2023-10-13T15:32:28.263Z,100420.00
2023-10-13T15:33:02.169Z,100431.88
2023-10-13T15:33:35.995Z,100425.94
2023-10-13T15:34:15.835Z,100428.13
2023-10-13T15:34:49.934Z,100430.34
2023-10-13T15:35:23.879Z,100435.25
2023-10-13T15:35:58.102Z,100434.22
2023-10-13T15:36:32.802Z,100424.88
2023-10-13T15:37:06.712Z,100428.78
2023-10-13T15:37:41.723Z,100431.16
2023-10-13T15:38:15.982Z,100432.50
2023-10-13T15:38:50.768Z,100423.66
2023-10-13T15:39:25.105Z,100424.97
2023-10-13T15:40:01.395Z,100429.00
2023-10-13T15:40:43.285Z,100433.09
2023-10-13T15:41:28.011Z,100422.22
2023-10-13T15:42:03.518Z,100423.03
2023-10-13T15:42:42.374Z,100428.28
2023-10-13T15:43:16.114Z,100420.41
2023-10-13T15:43:50.827Z,100427.88
2023-10-13T15:44:25.913Z,100425.47
2023-10-13T15:44:59.313Z,100425.44
2023-10-13T15:45:40.423Z,100426.09
2023-10-13T15:47:22.169Z,100431.13
2023-10-13T15:48:29.483Z,100429.91
2023-10-13T15:49:14.377Z,100421.16
2023-10-13T15:49:50.622Z,100426.06
2023-10-13T15:50:24.688Z,100422.28
2023-10-13T15:50:58.454Z,100425.63
2023-10-13T15:51:37.528Z,100428.94
2023-10-13T15:52:11.593Z,100426.00
2023-10-13T15:52:47.770Z,100432.19
2023-10-13T15:53:21.441Z,100430.41
2023-10-13T15:53:55.060Z,100432.44
2023-10-13T15:54:28.584Z,100434.75
2023-10-13T15:55:02.098Z,100427.09
2023-10-13T15:55:38.910Z,100429.41
2023-10-13T15:56:13.041Z,100430.84
2023-10-13T15:56:49.521Z,100420.66
2023-10-13T15:57:24.594Z,100425.38
2023-10-13T15:57:57.985Z,100430.72
2023-10-13T15:58:31.584Z,100422.50
2023-10-13T15:59:08.205Z,100430.91
2023-10-13T15:59:47.990Z,100423.09
2023-10-13T16:00:24.520Z,100432.78
2023-10-13T16:00:58.149Z,100431.38
2023-10-13T16:01:34.790Z,100429.97
2023-10-13T16:02:13.306Z,100428.56
2023-10-13T16:02:47.294Z,100430.19
2023-10-13T16:03:20.767Z,100426.69
2023-10-13T16:03:54.396Z,100428.28
2023-10-13T16:04:28.119Z,100426.75
2023-10-13T16:05:01.920Z,100430.72
2023-10-13T16:05:36.122Z,100424.78